sensor_id;sensor_type;location;lat;lon;timestamp;P1;durP1;ratioP1;P2;durP2;ratioP2
78670;SDS011;68277;52.724;6.516;2023-05-13T05:26:33;13.38;;;5.95;;
78670;SDS011;68277;52.724;6.516;2023-05-13T05:29:00;7.95;;;5.18;;
78670;SDS011;68277;52.724;6.516;2023-05-13T05:31:26;14.02;;;5.60;;
78670;SDS011;68277;52.724;6.516;2023-05-13T05:33:53;9.57;;;6.13;;
78670;SDS011;68277;52.724;6.516;2023-05-13T05:36:23;9.73;;;5.68;;
78670;SDS011;68277;52.724;6.516;2023-05-13T05:38:49;10.65;;;5.43;;
78670;SDS011;68277;52.724;6.516;2023-05-13T05:41:15;10.93;;;6.97;;
78670;SDS011;68277;52.724;6.516;2023-05-13T05:43:44;8.73;;;5.82;;
78670;SDS011;68277;52.724;6.516;2023-05-13T05:46:09;9.30;;;5.45;;
78670;SDS011;68277;52.724;6.516;2023-05-13T05:48:38;9.80;;;5.93;;
78670;SDS011;68277;52.724;6.516;2023-05-13T05:51:04;9.85;;;5.20;;
78670;SDS011;68277;52.724;6.516;2023-05-13T05:53:33;11.63;;;5.70;;
78670;SDS011;68277;52.724;6.516;2023-05-13T05:56:00;11.00;;;7.15;;
78670;SDS011;68277;52.724;6.516;2023-05-13T05:58:26;8.98;;;5.40;;
78670;SDS011;68277;52.724;6.516;2023-05-13T06:00:51;6.07;;;4.50;;
78670;SDS011;68277;52.724;6.516;2023-05-13T06:03:18;10.60;;;5.10;;
78670;SDS011;68277;52.724;6.516;2023-05-13T06:05:45;8.30;;;4.35;;
78670;SDS011;68277;52.724;6.516;2023-05-13T06:08:10;9.00;;;5.15;;
78670;SDS011;68277;52.724;6.516;2023-05-13T06:10:38;10.15;;;5.78;;
78670;SDS011;68277;52.724;6.516;2023-05-13T06:13:03;7.25;;;4.72;;
78670;SDS011;68277;52.724;6.516;2023-05-13T06:15:29;9.43;;;5.28;;
78670;SDS011;68277;52.724;6.516;2023-05-13T06:17:54;9.27;;;5.25;;
78670;SDS011;68277;52.724;6.516;2023-05-13T06:20:21;8.38;;;5.13;;
78670;SDS011;68277;52.724;6.516;2023-05-13T06:22:46;9.70;;;5.57;;
78670;SDS011;68277;52.724;6.516;2023-05-13T06:25:12;6.88;;;4.97;;
78670;SDS011;68277;52.724;6.516;2023-05-13T06:27:39;9.95;;;6.15;;
78670;SDS011;68277;52.724;6.516;2023-05-13T06:30:05;9.20;;;5.85;;
78670;SDS011;68277;52.724;6.516;2023-05-13T06:32:31;10.00;;;6.22;;
78670;SDS011;68277;52.724;6.516;2023-05-13T06:37:23;11.23;;;5.82;;
78670;SDS011;68277;52.724;6.516;2023-05-13T06:39:48;9.80;;;5.15;;
78670;SDS011;68277;52.724;6.516;2023-05-13T06:42:15;8.82;;;5.45;;
78670;SDS011;68277;52.724;6.516;2023-05-13T06:44:43;11.38;;;5.93;;
78670;SDS011;68277;52.724;6.516;2023-05-13T06:47:09;12.40;;;5.60;;
78670;SDS011;68277;52.724;6.516;2023-05-13T06:49:38;11.38;;;5.13;;
78670;SDS011;68277;52.724;6.516;2023-05-13T06:52:04;10.70;;;4.90;;
78670;SDS011;68277;52.724;6.516;2023-05-13T06:54:30;7.60;;;4.20;;
78670;SDS011;68277;52.724;6.516;2023-05-13T06:56:56;8.20;;;5.03;;
78670;SDS011;68277;52.724;6.516;2023-05-13T06:59:21;8.27;;;5.05;;
78670;SDS011;68277;52.724;6.516;2023-05-13T07:01:47;9.55;;;5.20;;
78670;SDS011;68277;52.724;6.516;2023-05-13T07:04:12;8.68;;;5.40;;
78670;SDS011;68277;52.724;6.516;2023-05-13T07:06:38;8.85;;;4.53;;
78670;SDS011;68277;52.724;6.516;2023-05-13T07:09:03;9.20;;;5.60;;
78670;SDS011;68277;52.724;6.516;2023-05-13T07:11:28;10.18;;;4.97;;
78670;SDS011;68277;52.724;6.516;2023-05-13T07:13:54;6.95;;;4.50;;
78670;SDS011;68277;52.724;6.516;2023-05-13T07:16:23;10.45;;;4.97;;
78670;SDS011;68277;52.724;6.516;2023-05-13T07:18:50;7.10;;;4.65;;
78670;SDS011;68277;52.724;6.516;2023-05-13T07:21:15;6.32;;;4.20;;
78670;SDS011;68277;52.724;6.516;2023-05-13T07:23:41;6.78;;;4.65;;
78670;SDS011;68277;52.724;6.516;2023-05-13T07:26:07;6.85;;;4.63;;
78670;SDS011;68277;52.724;6.516;2023-05-13T07:28:33;7.15;;;5.43;;
78670;SDS011;68277;52.724;6.516;2023-05-13T07:30:58;7.50;;;4.47;;
78670;SDS011;68277;52.724;6.516;2023-05-13T07:33:23;8.88;;;4.53;;
78670;SDS011;68277;52.724;6.516;2023-05-13T07:35:49;11.00;;;4.65;;
78670;SDS011;68277;52.724;6.516;2023-05-13T07:38:16;7.82;;;4.63;;
78670;SDS011;68277;52.724;6.516;2023-05-13T07:40:42;6.57;;;3.50;;
78670;SDS011;68277;52.724;6.516;2023-05-13T07:43:07;5.57;;;3.67;;
78670;SDS011;68277;52.724;6.516;2023-05-13T07:45:34;7.05;;;4.30;;
78670;SDS011;68277;52.724;6.516;2023-05-13T07:47:59;6.70;;;3.47;;
78670;SDS011;68277;52.724;6.516;2023-05-13T07:50:25;6.45;;;3.72;;
78670;SDS011;68277;52.724;6.516;2023-05-13T07:52:50;8.27;;;4.55;;
78670;SDS011;68277;52.724;6.516;2023-05-13T07:55:16;6.45;;;4.03;;
78670;SDS011;68277;52.724;6.516;2023-05-13T07:57:42;6.57;;;3.85;;
78670;SDS011;68277;52.724;6.516;2023-05-13T08:00:07;6.70;;;4.15;;
78670;SDS011;68277;52.724;6.516;2023-05-13T08:02:41;6.68;;;4.25;;
78670;SDS011;68277;52.724;6.516;2023-05-13T08:05:07;5.63;;;3.90;;
78670;SDS011;68277;52.724;6.516;2023-05-13T08:07:35;5.78;;;2.85;;
78670;SDS011;68277;52.724;6.516;2023-05-13T08:10:00;5.43;;;3.50;;
78670;SDS011;68277;52.724;6.516;2023-05-13T08:12:26;6.93;;;3.92;;
78670;SDS011;68277;52.724;6.516;2023-05-13T08:14:51;7.40;;;3.55;;
78670;SDS011;68277;52.724;6.516;2023-05-13T08:17:16;6.78;;;3.45;;
78670;SDS011;68277;52.724;6.516;2023-05-13T08:19:43;7.82;;;3.60;;
78670;SDS011;68277;52.724;6.516;2023-05-13T08:24:35;5.82;;;3.42;;
78670;SDS011;68277;52.724;6.516;2023-05-13T08:27:00;6.10;;;3.40;;
78670;SDS011;68277;52.724;6.516;2023-05-13T08:29:26;7.70;;;3.58;;
78670;SDS011;68277;52.724;6.516;2023-05-13T08:31:52;5.97;;;3.88;;
78670;SDS011;68277;52.724;6.516;2023-05-13T08:34:17;6.88;;;3.90;;
78670;SDS011;68277;52.724;6.516;2023-05-13T08:36:44;4.70;;;2.70;;
78670;SDS011;68277;52.724;6.516;2023-05-13T08:41:35;6.95;;;3.60;;
78670;SDS011;68277;52.724;6.516;2023-05-13T08:44:03;6.35;;;3.70;;
78670;SDS011;68277;52.724;6.516;2023-05-13T08:46:31;4.35;;;3.17;;
78670;SDS011;68277;52.724;6.516;2023-05-13T08:48:58;9.52;;;5.60;;
78670;SDS011;68277;52.724;6.516;2023-05-13T08:51:25;10.45;;;4.80;;
78670;SDS011;68277;52.724;6.516;2023-05-13T08:53:51;5.40;;;3.30;;
78670;SDS011;68277;52.724;6.516;2023-05-13T08:56:19;4.78;;;3.20;;
78670;SDS011;68277;52.724;6.516;2023-05-13T08:58:46;4.45;;;2.50;;
78670;SDS011;68277;52.724;6.516;2023-05-13T09:01:12;9.65;;;3.63;;
78670;SDS011;68277;52.724;6.516;2023-05-13T09:03:40;7.85;;;3.75;;
78670;SDS011;68277;52.724;6.516;2023-05-13T09:06:17;5.32;;;2.95;;
78670;SDS011;68277;52.724;6.516;2023-05-13T09:08:44;5.05;;;2.45;;
78670;SDS011;68277;52.724;6.516;2023-05-13T09:11:10;4.55;;;2.55;;
78670;SDS011;68277;52.724;6.516;2023-05-13T09:13:35;7.82;;;3.40;;
78670;SDS011;68277;52.724;6.516;2023-05-13T09:16:01;5.78;;;3.50;;
78670;SDS011;68277;52.724;6.516;2023-05-13T09:18:30;5.93;;;3.28;;
78670;SDS011;68277;52.724;6.516;2023-05-13T09:21:20;5.10;;;3.28;;
78670;SDS011;68277;52.724;6.516;2023-05-13T09:23:48;4.88;;;2.40;;
78670;SDS011;68277;52.724;6.516;2023-05-13T09:26:26;7.63;;;3.60;;
78670;SDS011;68277;52.724;6.516;2023-05-13T09:31:55;5.10;;;2.13;;
78670;SDS011;68277;52.724;6.516;2023-05-13T09:34:25;4.75;;;2.75;;
78670;SDS011;68277;52.724;6.516;2023-05-13T09:37:00;6.18;;;2.40;;
78670;SDS011;68277;52.724;6.516;2023-05-13T09:39:27;4.25;;;2.20;;
78670;SDS011;68277;52.724;6.516;2023-05-13T09:41:54;4.60;;;2.13;;
78670;SDS011;68277;52.724;6.516;2023-05-13T09:44:20;6.65;;;2.35;;
78670;SDS011;68277;52.724;6.516;2023-05-13T09:46:46;11.85;;;2.63;;
78670;SDS011;68277;52.724;6.516;2023-05-13T09:49:13;4.25;;;2.17;;
78670;SDS011;68277;52.724;6.516;2023-05-13T09:51:39;4.78;;;2.00;;
78670;SDS011;68277;52.724;6.516;2023-05-13T09:54:04;4.65;;;1.92;;
78670;SDS011;68277;52.724;6.516;2023-05-13T09:56:34;4.30;;;2.20;;
78670;SDS011;68277;52.724;6.516;2023-05-13T09:59:00;6.32;;;2.55;;
78670;SDS011;68277;52.724;6.516;2023-05-13T10:01:27;3.42;;;1.85;;
78670;SDS011;68277;52.724;6.516;2023-05-13T10:03:56;2.78;;;1.90;;
78670;SDS011;68277;52.724;6.516;2023-05-13T10:06:26;3.58;;;2.25;;
78670;SDS011;68277;52.724;6.516;2023-05-13T10:08:55;3.47;;;2.08;;
78670;SDS011;68277;52.724;6.516;2023-05-13T10:11:23;5.72;;;1.92;;
78670;SDS011;68277;52.724;6.516;2023-05-13T10:13:49;2.63;;;1.83;;
78670;SDS011;68277;52.724;6.516;2023-05-13T10:16:20;8.00;;;2.53;;
78670;SDS011;68277;52.724;6.516;2023-05-13T10:18:47;3.38;;;1.95;;
78670;SDS011;68277;52.724;6.516;2023-05-13T10:21:13;3.55;;;2.08;;
78670;SDS011;68277;52.724;6.516;2023-05-13T10:23:38;6.55;;;2.00;;
78670;SDS011;68277;52.724;6.516;2023-05-13T10:26:04;3.28;;;1.80;;
78670;SDS011;68277;52.724;6.516;2023-05-13T10:28:31;5.47;;;2.03;;
78670;SDS011;68277;52.724;6.516;2023-05-13T10:30:57;3.35;;;2.33;;
78670;SDS011;68277;52.724;6.516;2023-05-13T10:33:23;2.47;;;1.65;;
78670;SDS011;68277;52.724;6.516;2023-05-13T10:44:40;4.88;;;1.95;;
78670;SDS011;68277;52.724;6.516;2023-05-13T10:47:07;3.70;;;1.80;;
78670;SDS011;68277;52.724;6.516;2023-05-13T10:49:34;3.38;;;2.08;;
78670;SDS011;68277;52.724;6.516;2023-05-13T10:52:07;2.45;;;1.90;;
78670;SDS011;68277;52.724;6.516;2023-05-13T10:54:37;3.67;;;1.67;;
78670;SDS011;68277;52.724;6.516;2023-05-13T10:57:09;9.80;;;2.42;;
78670;SDS011;68277;52.724;6.516;2023-05-13T10:59:34;3.03;;;1.73;;
78670;SDS011;68277;52.724;6.516;2023-05-13T11:02:01;3.67;;;1.70;;
78670;SDS011;68277;52.724;6.516;2023-05-13T11:04:56;4.25;;;1.85;;
78670;SDS011;68277;52.724;6.516;2023-05-13T11:07:24;3.83;;;1.73;;
78670;SDS011;68277;52.724;6.516;2023-05-13T11:09:53;3.55;;;2.00;;
78670;SDS011;68277;52.724;6.516;2023-05-13T11:12:19;2.90;;;1.52;;
78670;SDS011;68277;52.724;6.516;2023-05-13T11:14:44;4.05;;;2.25;;
78670;SDS011;68277;52.724;6.516;2023-05-13T11:17:10;2.92;;;1.95;;
78670;SDS011;68277;52.724;6.516;2023-05-13T11:19:46;2.40;;;1.52;;
78670;SDS011;68277;52.724;6.516;2023-05-13T11:24:45;7.07;;;2.10;;
78670;SDS011;68277;52.724;6.516;2023-05-13T11:27:27;3.42;;;1.85;;
78670;SDS011;68277;52.724;6.516;2023-05-13T11:29:57;4.00;;;1.98;;
78670;SDS011;68277;52.724;6.516;2023-05-13T11:35:32;2.53;;;1.90;;
78670;SDS011;68277;52.724;6.516;2023-05-13T11:37:59;5.40;;;2.10;;
78670;SDS011;68277;52.724;6.516;2023-05-13T11:40:27;3.80;;;1.90;;
78670;SDS011;68277;52.724;6.516;2023-05-13T11:42:54;4.38;;;1.85;;
78670;SDS011;68277;52.724;6.516;2023-05-13T11:45:21;4.25;;;1.95;;
78670;SDS011;68277;52.724;6.516;2023-05-13T11:47:48;2.80;;;1.50;;
78670;SDS011;68277;52.724;6.516;2023-05-13T11:50:27;2.88;;;1.92;;
78670;SDS011;68277;52.724;6.516;2023-05-13T11:52:58;4.72;;;1.98;;
78670;SDS011;68277;52.724;6.516;2023-05-13T11:55:26;3.50;;;2.05;;
78670;SDS011;68277;52.724;6.516;2023-05-13T11:57:53;2.58;;;1.58;;
78670;SDS011;68277;52.724;6.516;2023-05-13T12:00:32;3.40;;;1.90;;
78670;SDS011;68277;52.724;6.516;2023-05-13T12:02:58;3.17;;;1.92;;
78670;SDS011;68277;52.724;6.516;2023-05-13T12:05:25;5.43;;;1.85;;
78670;SDS011;68277;52.724;6.516;2023-05-13T12:07:53;2.90;;;1.60;;
78670;SDS011;68277;52.724;6.516;2023-05-13T12:10:21;5.70;;;2.28;;
78670;SDS011;68277;52.724;6.516;2023-05-13T12:12:47;2.53;;;1.50;;
78670;SDS011;68277;52.724;6.516;2023-05-13T12:15:13;3.85;;;2.00;;
78670;SDS011;68277;52.724;6.516;2023-05-13T12:17:40;4.15;;;2.00;;
78670;SDS011;68277;52.724;6.516;2023-05-13T12:31:00;2.22;;;1.35;;
78670;SDS011;68277;52.724;6.516;2023-05-13T12:33:27;5.00;;;2.00;;
78670;SDS011;68277;52.724;6.516;2023-05-13T12:38:57;3.25;;;1.92;;
78670;SDS011;68277;52.724;6.516;2023-05-13T12:41:27;3.20;;;2.00;;
78670;SDS011;68277;52.724;6.516;2023-05-13T12:43:55;3.90;;;1.80;;
78670;SDS011;68277;52.724;6.516;2023-05-13T12:46:22;7.20;;;2.10;;
78670;SDS011;68277;52.724;6.516;2023-05-13T12:48:50;4.90;;;2.17;;
78670;SDS011;68277;52.724;6.516;2023-05-13T12:51:16;4.15;;;1.83;;
78670;SDS011;68277;52.724;6.516;2023-05-13T12:53:42;2.67;;;2.00;;
78670;SDS011;68277;52.724;6.516;2023-05-13T12:56:07;3.55;;;2.20;;
78670;SDS011;68277;52.724;6.516;2023-05-13T12:58:32;2.40;;;1.70;;
78670;SDS011;68277;52.724;6.516;2023-05-13T13:00:58;5.35;;;1.63;;
78670;SDS011;68277;52.724;6.516;2023-05-13T13:03:23;2.75;;;1.30;;
78670;SDS011;68277;52.724;6.516;2023-05-13T13:05:49;3.10;;;2.13;;
78670;SDS011;68277;52.724;6.516;2023-05-13T13:08:16;3.03;;;1.88;;
78670;SDS011;68277;52.724;6.516;2023-05-13T13:10:43;2.65;;;1.70;;
78670;SDS011;68277;52.724;6.516;2023-05-13T13:13:10;5.57;;;1.70;;
78670;SDS011;68277;52.724;6.516;2023-05-13T13:15:36;3.63;;;1.95;;
78670;SDS011;68277;52.724;6.516;2023-05-13T13:18:02;3.80;;;2.15;;
78670;SDS011;68277;52.724;6.516;2023-05-13T13:20:27;5.18;;;1.98;;
78670;SDS011;68277;52.724;6.516;2023-05-13T13:22:53;7.15;;;2.60;;
78670;SDS011;68277;52.724;6.516;2023-05-13T13:25:18;7.57;;;2.60;;
78670;SDS011;68277;52.724;6.516;2023-05-13T13:27:45;4.38;;;1.88;;
78670;SDS011;68277;52.724;6.516;2023-05-13T13:30:11;5.93;;;2.00;;
78670;SDS011;68277;52.724;6.516;2023-05-13T13:32:38;3.40;;;1.80;;
78670;SDS011;68277;52.724;6.516;2023-05-13T13:35:04;2.38;;;1.90;;
78670;SDS011;68277;52.724;6.516;2023-05-13T13:37:29;3.28;;;1.45;;
78670;SDS011;68277;52.724;6.516;2023-05-13T13:39:55;3.22;;;1.77;;
78670;SDS011;68277;52.724;6.516;2023-05-13T13:42:20;3.58;;;1.83;;
78670;SDS011;68277;52.724;6.516;2023-05-13T13:44:46;3.20;;;2.00;;
78670;SDS011;68277;52.724;6.516;2023-05-13T13:47:12;4.93;;;1.98;;
78670;SDS011;68277;52.724;6.516;2023-05-13T13:49:38;2.70;;;1.50;;
78670;SDS011;68277;52.724;6.516;2023-05-13T13:52:04;5.13;;;1.80;;
78670;SDS011;68277;52.724;6.516;2023-05-13T13:54:29;4.32;;;1.45;;
78670;SDS011;68277;52.724;6.516;2023-05-13T13:56:55;1.98;;;1.42;;
78670;SDS011;68277;52.724;6.516;2023-05-13T13:59:20;3.70;;;1.90;;
78670;SDS011;68277;52.724;6.516;2023-05-13T14:01:45;3.35;;;2.10;;
78670;SDS011;68277;52.724;6.516;2023-05-13T14:04:15;3.33;;;1.48;;
78670;SDS011;68277;52.724;6.516;2023-05-13T14:06:44;4.28;;;1.45;;
78670;SDS011;68277;52.724;6.516;2023-05-13T14:09:10;4.72;;;1.00;;
78670;SDS011;68277;52.724;6.516;2023-05-13T14:11:36;5.45;;;1.67;;
78670;SDS011;68277;52.724;6.516;2023-05-13T14:14:01;5.20;;;1.65;;
78670;SDS011;68277;52.724;6.516;2023-05-13T14:16:27;2.67;;;1.83;;
78670;SDS011;68277;52.724;6.516;2023-05-13T14:18:52;2.42;;;1.60;;
78670;SDS011;68277;52.724;6.516;2023-05-13T14:21:18;3.15;;;1.75;;
78670;SDS011;68277;52.724;6.516;2023-05-13T14:23:43;6.50;;;3.92;;
78670;SDS011;68277;52.724;6.516;2023-05-13T14:26:08;3.55;;;1.98;;
78670;SDS011;68277;52.724;6.516;2023-05-13T14:28:39;3.95;;;1.67;;
78670;SDS011;68277;52.724;6.516;2023-05-13T14:31:05;2.00;;;1.30;;
78670;SDS011;68277;52.724;6.516;2023-05-13T14:33:31;6.70;;;2.15;;
78670;SDS011;68277;52.724;6.516;2023-05-13T14:35:56;3.33;;;1.50;;
78670;SDS011;68277;52.724;6.516;2023-05-13T14:38:23;3.40;;;1.92;;
78670;SDS011;68277;52.724;6.516;2023-05-13T14:40:51;2.53;;;1.60;;
78670;SDS011;68277;52.724;6.516;2023-05-13T14:43:16;3.72;;;2.67;;
78670;SDS011;68277;52.724;6.516;2023-05-13T14:45:42;3.20;;;1.70;;
78670;SDS011;68277;52.724;6.516;2023-05-13T14:48:07;3.45;;;1.95;;
78670;SDS011;68277;52.724;6.516;2023-05-13T14:50:34;2.95;;;1.77;;
78670;SDS011;68277;52.724;6.516;2023-05-13T14:52:59;3.15;;;1.98;;
78670;SDS011;68277;52.724;6.516;2023-05-13T14:55:25;4.43;;;2.00;;
78670;SDS011;68277;52.724;6.516;2023-05-13T14:57:50;3.35;;;1.80;;
78670;SDS011;68277;52.724;6.516;2023-05-13T15:00:16;5.70;;;2.63;;
78670;SDS011;68277;52.724;6.516;2023-05-13T15:02:41;3.90;;;1.98;;
78670;SDS011;68277;52.724;6.516;2023-05-13T15:05:07;3.08;;;1.92;;
78670;SDS011;68277;52.724;6.516;2023-05-13T15:07:32;2.75;;;1.77;;
78670;SDS011;68277;52.724;6.516;2023-05-13T15:09:58;3.38;;;1.75;;
78670;SDS011;68277;52.724;6.516;2023-05-13T15:12:23;5.10;;;2.03;;
78670;SDS011;68277;52.724;6.516;2023-05-13T15:14:50;2.20;;;1.48;;
78670;SDS011;68277;52.724;6.516;2023-05-13T15:17:17;3.78;;;1.42;;
78670;SDS011;68277;52.724;6.516;2023-05-13T15:19:43;2.53;;;1.38;;
78670;SDS011;68277;52.724;6.516;2023-05-13T15:22:08;3.45;;;1.70;;
78670;SDS011;68277;52.724;6.516;2023-05-13T15:24:34;3.13;;;1.85;;
78670;SDS011;68277;52.724;6.516;2023-05-13T15:27:03;2.30;;;1.38;;
78670;SDS011;68277;52.724;6.516;2023-05-13T15:29:34;2.22;;;1.77;;
78670;SDS011;68277;52.724;6.516;2023-05-13T15:32:00;3.30;;;1.60;;
78670;SDS011;68277;52.724;6.516;2023-05-13T15:34:25;3.63;;;2.13;;
78670;SDS011;68277;52.724;6.516;2023-05-13T15:36:51;4.22;;;1.60;;
78670;SDS011;68277;52.724;6.516;2023-05-13T15:39:17;2.70;;;1.55;;
78670;SDS011;68277;52.724;6.516;2023-05-13T15:41:43;3.05;;;1.40;;
78670;SDS011;68277;52.724;6.516;2023-05-13T15:44:10;2.85;;;1.70;;
78670;SDS011;68277;52.724;6.516;2023-05-13T15:46:36;3.78;;;1.95;;
78670;SDS011;68277;52.724;6.516;2023-05-13T15:49:01;1.80;;;1.50;;
78670;SDS011;68277;52.724;6.516;2023-05-13T15:51:27;2.55;;;1.70;;
78670;SDS011;68277;52.724;6.516;2023-05-13T15:53:52;2.80;;;1.70;;
78670;SDS011;68277;52.724;6.516;2023-05-13T15:56:18;4.38;;;2.22;;
78670;SDS011;68277;52.724;6.516;2023-05-13T15:58:45;3.42;;;2.08;;
78670;SDS011;68277;52.724;6.516;2023-05-13T16:01:11;4.22;;;2.53;;
78670;SDS011;68277;52.724;6.516;2023-05-13T16:03:37;7.43;;;3.75;;
78670;SDS011;68277;52.724;6.516;2023-05-13T16:06:03;5.90;;;3.38;;
78670;SDS011;68277;52.724;6.516;2023-05-13T16:08:29;8.00;;;2.38;;
78670;SDS011;68277;52.724;6.516;2023-05-13T16:10:54;6.13;;;2.92;;
78670;SDS011;68277;52.724;6.516;2023-05-13T16:13:21;2.92;;;1.83;;
78670;SDS011;68277;52.724;6.516;2023-05-13T16:15:46;4.32;;;2.05;;
78670;SDS011;68277;52.724;6.516;2023-05-13T16:18:12;5.15;;;2.40;;
78670;SDS011;68277;52.724;6.516;2023-05-13T16:20:37;6.78;;;2.20;;
78670;SDS011;68277;52.724;6.516;2023-05-13T16:23:03;5.63;;;3.13;;
78670;SDS011;68277;52.724;6.516;2023-05-13T16:25:28;5.50;;;2.95;;
78670;SDS011;68277;52.724;6.516;2023-05-13T16:27:54;4.78;;;3.03;;
78670;SDS011;68277;52.724;6.516;2023-05-13T16:30:21;6.97;;;3.90;;
78670;SDS011;68277;52.724;6.516;2023-05-13T16:32:47;9.52;;;4.43;;
78670;SDS011;68277;52.724;6.516;2023-05-13T16:35:20;7.25;;;3.10;;
78670;SDS011;68277;52.724;6.516;2023-05-13T16:37:46;7.43;;;3.72;;
78670;SDS011;68277;52.724;6.516;2023-05-13T16:40:11;9.02;;;4.15;;
78670;SDS011;68277;52.724;6.516;2023-05-13T16:42:37;7.80;;;3.30;;
78670;SDS011;68277;52.724;6.516;2023-05-13T16:45:03;8.02;;;3.88;;
78670;SDS011;68277;52.724;6.516;2023-05-13T16:47:29;5.75;;;3.55;;
78670;SDS011;68277;52.724;6.516;2023-05-13T16:49:56;9.15;;;5.38;;
78670;SDS011;68277;52.724;6.516;2023-05-13T16:52:22;5.43;;;3.40;;
78670;SDS011;68277;52.724;6.516;2023-05-13T16:57:14;5.68;;;3.17;;
78670;SDS011;68277;52.724;6.516;2023-05-13T16:59:40;6.57;;;3.45;;
78670;SDS011;68277;52.724;6.516;2023-05-13T17:02:06;7.72;;;3.25;;
78670;SDS011;68277;52.724;6.516;2023-05-13T17:04:32;3.80;;;2.20;;
78670;SDS011;68277;52.724;6.516;2023-05-13T17:09:24;4.07;;;2.22;;
78670;SDS011;68277;52.724;6.516;2023-05-13T17:11:49;5.55;;;2.40;;
78670;SDS011;68277;52.724;6.516;2023-05-13T17:14:15;5.28;;;2.60;;
78670;SDS011;68277;52.724;6.516;2023-05-13T17:16:40;5.88;;;2.70;;
78670;SDS011;68277;52.724;6.516;2023-05-13T17:19:06;10.02;;;3.03;;
78670;SDS011;68277;52.724;6.516;2023-05-13T17:21:33;4.32;;;2.88;;
78670;SDS011;68277;52.724;6.516;2023-05-13T17:23:58;4.78;;;3.15;;
78670;SDS011;68277;52.724;6.516;2023-05-13T17:26:24;6.82;;;3.30;;
78670;SDS011;68277;52.724;6.516;2023-05-13T17:28:50;6.50;;;2.95;;
78670;SDS011;68277;52.724;6.516;2023-05-13T17:31:16;7.40;;;3.80;;
78670;SDS011;68277;52.724;6.516;2023-05-13T17:33:42;6.40;;;3.20;;
78670;SDS011;68277;52.724;6.516;2023-05-13T17:36:07;8.82;;;3.40;;
78670;SDS011;68277;52.724;6.516;2023-05-13T17:38:33;5.65;;;3.15;;
78670;SDS011;68277;52.724;6.516;2023-05-13T17:40:59;5.05;;;2.80;;
78670;SDS011;68277;52.724;6.516;2023-05-13T17:43:24;5.32;;;3.38;;
78670;SDS011;68277;52.724;6.516;2023-05-13T17:48:16;5.30;;;2.58;;
78670;SDS011;68277;52.724;6.516;2023-05-13T17:50:41;7.00;;;2.75;;
78670;SDS011;68277;52.724;6.516;2023-05-13T17:53:07;5.97;;;2.83;;
78670;SDS011;68277;52.724;6.516;2023-05-13T17:55:32;9.07;;;3.53;;
78670;SDS011;68277;52.724;6.516;2023-05-13T17:57:58;6.55;;;3.40;;
78670;SDS011;68277;52.724;6.516;2023-05-13T18:00:24;4.35;;;2.38;;
78670;SDS011;68277;52.724;6.516;2023-05-13T18:05:16;4.00;;;2.70;;
78670;SDS011;68277;52.724;6.516;2023-05-13T18:07:41;3.53;;;2.38;;
78670;SDS011;68277;52.724;6.516;2023-05-13T18:10:07;4.95;;;2.92;;
78670;SDS011;68277;52.724;6.516;2023-05-13T18:12:33;3.90;;;3.15;;
78670;SDS011;68277;52.724;6.516;2023-05-13T18:14:58;5.85;;;2.92;;
78670;SDS011;68277;52.724;6.516;2023-05-13T18:17:24;4.53;;;2.25;;
78670;SDS011;68277;52.724;6.516;2023-05-13T18:19:49;3.65;;;2.45;;
78670;SDS011;68277;52.724;6.516;2023-05-13T18:22:14;5.45;;;2.95;;
78670;SDS011;68277;52.724;6.516;2023-05-13T18:24:40;5.85;;;4.00;;
78670;SDS011;68277;52.724;6.516;2023-05-13T18:27:06;3.45;;;2.13;;
78670;SDS011;68277;52.724;6.516;2023-05-13T18:29:32;7.03;;;2.35;;
78670;SDS011;68277;52.724;6.516;2023-05-13T18:31:58;4.88;;;2.60;;
78670;SDS011;68277;52.724;6.516;2023-05-13T18:34:23;4.32;;;2.63;;
78670;SDS011;68277;52.724;6.516;2023-05-13T18:36:49;4.30;;;3.15;;
78670;SDS011;68277;52.724;6.516;2023-05-13T18:39:15;3.17;;;2.42;;
78670;SDS011;68277;52.724;6.516;2023-05-13T18:41:41;3.85;;;2.53;;
78670;SDS011;68277;52.724;6.516;2023-05-13T18:44:07;5.10;;;2.70;;
78670;SDS011;68277;52.724;6.516;2023-05-13T18:46:32;5.65;;;2.47;;
78670;SDS011;68277;52.724;6.516;2023-05-13T18:48:59;3.70;;;2.65;;
78670;SDS011;68277;52.724;6.516;2023-05-13T18:51:28;5.47;;;2.42;;
78670;SDS011;68277;52.724;6.516;2023-05-13T18:53:53;9.13;;;3.35;;
78670;SDS011;68277;52.724;6.516;2023-05-13T18:56:18;5.38;;;2.55;;
78670;SDS011;68277;52.724;6.516;2023-05-13T18:58:45;4.03;;;2.50;;
78670;SDS011;68277;52.724;6.516;2023-05-13T19:01:11;5.85;;;3.42;;
78670;SDS011;68277;52.724;6.516;2023-05-13T19:03:37;4.60;;;2.95;;
78670;SDS011;68277;52.724;6.516;2023-05-13T19:06:02;4.68;;;2.80;;
78670;SDS011;68277;52.724;6.516;2023-05-13T19:08:28;5.28;;;2.53;;
78670;SDS011;68277;52.724;6.516;2023-05-13T19:10:54;3.97;;;2.80;;
78670;SDS011;68277;52.724;6.516;2023-05-13T19:13:20;4.80;;;2.70;;
78670;SDS011;68277;52.724;6.516;2023-05-13T19:15:46;4.60;;;2.58;;
78670;SDS011;68277;52.724;6.516;2023-05-13T19:20:38;5.72;;;2.60;;
78670;SDS011;68277;52.724;6.516;2023-05-13T19:23:04;5.45;;;2.58;;
78670;SDS011;68277;52.724;6.516;2023-05-13T19:25:30;4.53;;;3.08;;
78670;SDS011;68277;52.724;6.516;2023-05-13T19:27:55;5.35;;;3.30;;
78670;SDS011;68277;52.724;6.516;2023-05-13T19:30:21;4.80;;;3.28;;
78670;SDS011;68277;52.724;6.516;2023-05-13T19:32:47;7.38;;;3.53;;
78670;SDS011;68277;52.724;6.516;2023-05-13T19:37:38;4.07;;;2.85;;
78670;SDS011;68277;52.724;6.516;2023-05-13T19:40:04;6.22;;;3.78;;
78670;SDS011;68277;52.724;6.516;2023-05-13T19:44:56;5.57;;;3.55;;
78670;SDS011;68277;52.724;6.516;2023-05-13T19:47:21;5.60;;;3.33;;
78670;SDS011;68277;52.724;6.516;2023-05-13T19:49:47;5.60;;;2.90;;
78670;SDS011;68277;52.724;6.516;2023-05-13T19:52:12;4.78;;;2.80;;
78670;SDS011;68277;52.724;6.516;2023-05-13T19:54:37;5.18;;;3.60;;
78670;SDS011;68277;52.724;6.516;2023-05-13T19:57:03;5.50;;;3.33;;
78670;SDS011;68277;52.724;6.516;2023-05-13T19:59:28;5.15;;;2.92;;
78670;SDS011;68277;52.724;6.516;2023-05-13T20:01:54;6.40;;;4.30;;
78670;SDS011;68277;52.724;6.516;2023-05-13T20:04:19;7.70;;;3.50;;
78670;SDS011;68277;52.724;6.516;2023-05-13T20:06:45;9.15;;;4.82;;
78670;SDS011;68277;52.724;6.516;2023-05-13T20:09:11;6.68;;;3.60;;
78670;SDS011;68277;52.724;6.516;2023-05-13T20:11:36;7.18;;;3.63;;
78670;SDS011;68277;52.724;6.516;2023-05-13T20:14:02;5.80;;;3.83;;
78670;SDS011;68277;52.724;6.516;2023-05-13T20:16:29;6.10;;;4.28;;
78670;SDS011;68277;52.724;6.516;2023-05-13T20:18:54;5.15;;;3.03;;
78670;SDS011;68277;52.724;6.516;2023-05-13T20:21:20;7.70;;;3.70;;
78670;SDS011;68277;52.724;6.516;2023-05-13T20:23:48;9.00;;;5.28;;
78670;SDS011;68277;52.724;6.516;2023-05-13T20:26:14;5.38;;;3.25;;
78670;SDS011;68277;52.724;6.516;2023-05-13T20:28:39;6.88;;;4.03;;
78670;SDS011;68277;52.724;6.516;2023-05-13T20:31:05;7.18;;;4.20;;
78670;SDS011;68277;52.724;6.516;2023-05-13T20:33:30;7.25;;;4.13;;
78670;SDS011;68277;52.724;6.516;2023-05-13T20:35:56;5.70;;;3.13;;
78670;SDS011;68277;52.724;6.516;2023-05-13T20:38:22;11.50;;;5.10;;
78670;SDS011;68277;52.724;6.516;2023-05-13T20:40:47;8.88;;;4.10;;
78670;SDS011;68277;52.724;6.516;2023-05-13T20:43:13;4.47;;;3.33;;
78670;SDS011;68277;52.724;6.516;2023-05-13T20:45:41;8.63;;;3.92;;
78670;SDS011;68277;52.724;6.516;2023-05-13T20:48:07;6.10;;;2.92;;
78670;SDS011;68277;52.724;6.516;2023-05-13T20:50:34;7.72;;;4.45;;
78670;SDS011;68277;52.724;6.516;2023-05-13T20:53:00;6.72;;;3.45;;
78670;SDS011;68277;52.724;6.516;2023-05-13T20:55:25;5.47;;;3.38;;
78670;SDS011;68277;52.724;6.516;2023-05-13T20:57:51;5.65;;;3.08;;
78670;SDS011;68277;52.724;6.516;2023-05-13T21:00:17;3.90;;;2.83;;
78670;SDS011;68277;52.724;6.516;2023-05-13T21:02:43;9.15;;;3.60;;
78670;SDS011;68277;52.724;6.516;2023-05-13T21:05:09;9.55;;;4.78;;